createdAt,value
2023-04-09T00:02:16.362Z,9.00
2023-04-09T00:04:43.998Z,8.93
2023-04-09T00:07:11.495Z,8.90
2023-04-09T00:09:39.092Z,8.82
2023-04-09T00:12:06.400Z,8.78
2023-04-09T00:14:33.952Z,8.70
2023-04-09T00:17:01.261Z,8.69
2023-04-09T00:19:28.810Z,8.66
2023-04-09T00:21:56.246Z,8.66
2023-04-09T00:24:23.780Z,8.66
2023-04-09T00:26:51.414Z,8.60
2023-04-09T00:29:19.114Z,8.57
2023-04-09T00:31:46.428Z,8.60
2023-04-09T00:34:14.142Z,8.55
2023-04-09T00:36:41.382Z,8.57
2023-04-09T00:39:08.909Z,8.52
2023-04-09T00:41:36.197Z,8.50
2023-04-09T00:44:03.822Z,8.42
2023-04-09T00:46:32.651Z,8.36
2023-04-09T00:49:00.299Z,8.38
2023-04-09T00:51:28.725Z,8.37
2023-04-09T00:53:56.822Z,8.37
2023-04-09T00:56:25.646Z,8.24
2023-04-09T00:58:54.339Z,8.08
2023-04-09T01:01:21.833Z,8.00
2023-04-09T01:03:49.621Z,7.97
2023-04-09T01:06:48.206Z,7.88
2023-04-09T01:09:30.344Z,7.91
2023-04-09T01:12:16.279Z,7.86
2023-04-09T01:15:10.025Z,7.86
2023-04-09T01:18:31.510Z,7.83
2023-04-09T01:21:06.968Z,7.87
2023-04-09T01:23:58.157Z,7.88
2023-04-09T01:27:06.919Z,7.94
2023-04-09T01:29:41.492Z,8.00
2023-04-09T01:32:10.758Z,8.07
2023-04-09T01:34:39.091Z,8.09
2023-04-09T01:37:08.512Z,8.11
2023-04-09T01:39:38.652Z,8.14
2023-04-09T01:42:11.231Z,8.17
2023-04-09T01:44:45.461Z,8.21
2023-04-09T01:47:13.836Z,8.24
2023-04-09T01:49:44.895Z,8.26
2023-04-09T01:52:12.779Z,8.30
2023-04-09T01:54:40.031Z,8.31
2023-04-09T01:57:07.722Z,8.32
2023-04-09T01:59:34.970Z,8.32
2023-04-09T02:02:17.578Z,8.32
2023-04-09T02:04:51.637Z,8.35
2023-04-09T02:07:27.198Z,8.33
2023-04-09T02:09:56.243Z,8.35
2023-04-09T02:12:27.213Z,8.37
2023-04-09T02:14:55.261Z,8.37
2023-04-09T02:17:22.928Z,8.35
2023-04-09T02:19:50.943Z,8.33
2023-04-09T02:22:19.053Z,8.28
2023-04-09T02:24:47.235Z,8.29
2023-04-09T02:27:14.905Z,8.30
2023-04-09T02:29:43.723Z,8.25
2023-04-09T02:32:11.229Z,8.22
2023-04-09T02:34:38.528Z,8.22
2023-04-09T02:37:06.093Z,8.22
2023-04-09T02:39:33.461Z,8.25
2023-04-09T02:42:01.405Z,8.28
2023-04-09T02:44:28.722Z,8.29
2023-04-09T02:46:56.377Z,8.29
2023-04-09T02:49:23.690Z,8.26
2023-04-09T02:51:51.188Z,8.29
2023-04-09T02:54:18.448Z,8.29
2023-04-09T02:56:45.964Z,8.26
2023-04-09T02:59:13.197Z,8.29
2023-04-09T03:01:41.128Z,8.30
2023-04-09T03:04:08.594Z,8.32
2023-04-09T03:06:36.218Z,8.31
2023-04-09T03:09:03.568Z,8.34
2023-04-09T03:11:32.237Z,8.33
2023-04-09T03:13:59.461Z,8.32
2023-04-09T03:16:27.085Z,8.33
2023-04-09T03:18:54.469Z,8.31
2023-04-09T03:21:22.174Z,8.34
2023-04-09T03:23:49.428Z,8.46
2023-04-09T03:26:16.987Z,8.46
2023-04-09T03:28:44.210Z,8.50
2023-04-09T03:31:11.780Z,8.50
2023-04-09T03:33:38.998Z,8.49
2023-04-09T03:36:06.727Z,8.49
2023-04-09T03:38:33.991Z,8.49
2023-04-09T03:41:01.459Z,8.51
2023-04-09T03:43:28.690Z,8.46
2023-04-09T03:45:56.310Z,8.47
2023-04-09T03:48:23.541Z,8.46
2023-04-09T03:50:51.133Z,8.43
2023-04-09T03:53:18.364Z,8.43
2023-04-09T03:55:46.472Z,8.43
2023-04-09T03:58:13.730Z,8.42
2023-04-09T04:00:41.371Z,8.39
2023-04-09T04:03:08.748Z,8.38
2023-04-09T04:05:36.407Z,8.39
2023-04-09T04:08:03.617Z,8.43
2023-04-09T04:10:31.169Z,8.39
2023-04-09T04:12:58.442Z,8.39
2023-04-09T04:15:26.045Z,8.41
2023-04-09T04:17:53.438Z,8.43
2023-04-09T04:20:21.617Z,8.47
2023-04-09T04:22:48.831Z,8.50
2023-04-09T04:25:16.444Z,8.50
2023-04-09T04:27:43.676Z,8.50
2023-04-09T04:30:11.418Z,8.46
2023-04-09T04:32:38.785Z,8.48
2023-04-09T04:35:06.776Z,8.52
2023-04-09T04:37:34.232Z,8.58
2023-04-09T04:40:04.379Z,8.61
2023-04-09T04:42:31.723Z,8.67
2023-04-09T04:44:59.451Z,8.73
2023-04-09T04:47:26.882Z,8.80
2023-04-09T04:49:54.646Z,8.81
2023-04-09T04:52:21.976Z,8.90
2023-04-09T04:54:49.507Z,8.97
2023-04-09T04:57:16.767Z,9.09
2023-04-09T04:59:44.426Z,9.23
2023-04-09T05:02:11.839Z,9.28
2023-04-09T05:04:39.763Z,9.29
2023-04-09T05:07:07.287Z,9.29
2023-04-09T05:09:34.792Z,9.27
2023-04-09T05:12:02.546Z,9.28
2023-04-09T05:14:30.097Z,9.24
2023-04-09T05:16:57.373Z,9.24
2023-04-09T05:19:25.016Z,9.26
2023-04-09T05:21:52.322Z,9.23
2023-04-09T05:24:19.919Z,9.24
2023-04-09T05:26:47.067Z,9.21
2023-04-09T05:29:14.720Z,9.20
2023-04-09T05:31:43.169Z,9.23
2023-04-09T05:34:10.794Z,9.27
2023-04-09T05:36:38.031Z,9.24
2023-04-09T05:39:05.589Z,9.32
2023-04-09T05:41:33.716Z,9.33
2023-04-09T05:44:01.372Z,9.31
2023-04-09T05:46:29.261Z,9.32
2023-04-09T05:48:56.797Z,9.24
2023-04-09T05:51:24.143Z,9.39
2023-04-09T05:53:51.875Z,9.41
2023-04-09T05:56:19.574Z,9.48
2023-04-09T05:58:47.741Z,9.55
2023-04-09T06:01:15.464Z,9.62
2023-04-09T06:03:44.004Z,9.62
2023-04-09T06:06:11.501Z,9.60
2023-04-09T06:08:39.265Z,9.58
2023-04-09T06:11:10.579Z,9.57
2023-04-09T06:13:38.857Z,9.54
2023-04-09T06:16:10.350Z,9.57
2023-04-09T06:18:37.963Z,9.40
2023-04-09T06:21:07.729Z,9.51
2023-04-09T06:23:37.194Z,9.59
2023-04-09T06:26:04.499Z,9.72
2023-04-09T06:28:32.448Z,9.76
2023-04-09T06:30:59.830Z,9.91
2023-04-09T06:33:27.650Z,10.09
2023-04-09T06:35:54.933Z,10.18
2023-04-09T06:38:22.502Z,10.32
2023-04-09T06:40:49.848Z,10.49
2023-04-09T06:43:17.353Z,10.58
2023-04-09T06:45:44.649Z,10.68
2023-04-09T06:48:12.222Z,10.78
2023-04-09T06:50:39.614Z,10.88
2023-04-09T06:53:07.661Z,10.99
2023-04-09T06:55:34.924Z,11.08
2023-04-09T06:58:02.915Z,11.23
2023-04-09T07:00:30.177Z,11.38
2023-04-09T07:02:57.956Z,11.47
2023-04-09T07:05:25.484Z,11.65
2023-04-09T07:07:53.226Z,11.79
2023-04-09T07:10:20.491Z,11.87
2023-04-09T07:12:48.213Z,11.98
2023-04-09T07:15:15.533Z,11.88
2023-04-09T07:17:43.310Z,11.75
2023-04-09T07:20:11.403Z,11.78
2023-04-09T07:22:39.275Z,11.72
2023-04-09T07:25:07.499Z,11.61
2023-04-09T07:27:35.944Z,11.69
2023-04-09T07:30:04.588Z,11.70
2023-04-09T07:32:32.306Z,11.66
2023-04-09T07:34:59.813Z,11.76
2023-04-09T07:37:27.592Z,11.63
2023-04-09T07:39:54.927Z,11.66
2023-04-09T07:42:22.842Z,11.70
2023-04-09T07:44:50.466Z,11.80
2023-04-09T07:47:18.257Z,11.90
2023-04-09T07:49:45.660Z,12.00
2023-04-09T07:52:13.329Z,12.05
2023-04-09T07:54:40.732Z,12.12
2023-04-09T07:57:08.413Z,12.14
2023-04-09T07:59:36.538Z,12.01
2023-04-09T08:02:04.378Z,11.89
2023-04-09T08:04:32.243Z,11.88
2023-04-09T08:07:00.104Z,11.83
2023-04-09T08:09:27.425Z,11.78
2023-04-09T08:11:55.090Z,11.67
2023-04-09T08:14:22.385Z,11.79
2023-04-09T08:16:50.682Z,12.00
2023-04-09T08:19:20.317Z,12.26
2023-04-09T08:21:51.476Z,12.65
2023-04-09T08:24:18.890Z,13.03
2023-04-09T08:26:47.151Z,13.32
2023-04-09T08:29:15.656Z,13.44
2023-04-09T08:31:43.311Z,13.42
2023-04-09T08:34:10.722Z,13.33
2023-04-09T08:36:38.349Z,13.31
2023-04-09T08:39:05.740Z,13.29
2023-04-09T08:41:35.029Z,13.34
2023-04-09T08:44:02.804Z,13.37
2023-04-09T08:46:30.580Z,13.38
2023-04-09T08:48:57.917Z,13.27
2023-04-09T08:51:25.870Z,13.21
2023-04-09T08:54:03.934Z,13.26
2023-04-09T08:56:32.655Z,13.25
2023-04-09T08:58:59.989Z,13.18
2023-04-09T09:01:30.041Z,13.22
2023-04-09T09:04:00.451Z,13.22
2023-04-09T09:06:33.133Z,13.31
2023-04-09T09:09:21.217Z,13.38
2023-04-09T09:11:52.633Z,13.42
2023-04-09T09:14:20.570Z,13.45
2023-04-09T09:16:56.940Z,13.53
2023-04-09T09:19:27.316Z,13.59
2023-04-09T09:22:00.679Z,13.65
2023-04-09T09:24:28.851Z,13.76
2023-04-09T09:26:57.627Z,13.74
2023-04-09T09:29:26.205Z,13.80
2023-04-09T09:31:56.296Z,13.90
2023-04-09T09:34:25.485Z,14.18
2023-04-09T09:36:53.339Z,14.30
2023-04-09T09:39:22.153Z,14.47
2023-04-09T09:42:08.337Z,14.51
2023-04-09T09:44:35.937Z,14.79
2023-04-09T09:47:05.193Z,15.06
2023-04-09T09:49:32.665Z,15.33
2023-04-09T09:52:03.568Z,15.57
2023-04-09T09:54:43.264Z,15.74
2023-04-09T09:57:14.899Z,15.78
2023-04-09T09:59:52.173Z,15.76
2023-04-09T10:02:24.103Z,15.60
2023-04-09T10:04:55.441Z,15.46
2023-04-09T10:07:24.434Z,15.37
2023-04-09T10:09:54.425Z,15.32
2023-04-09T10:12:27.299Z,15.29
2023-04-09T10:14:56.697Z,15.24
2023-04-09T10:17:24.485Z,15.43
2023-04-09T10:20:49.029Z,15.81
2023-04-09T10:23:31.534Z,16.00
2023-04-09T10:25:58.807Z,16.10
2023-04-09T10:28:26.331Z,15.99
2023-04-09T10:30:55.135Z,16.17
2023-04-09T10:33:29.238Z,16.62
2023-04-09T10:36:04.721Z,18.14
2023-04-09T10:38:38.512Z,19.37
2023-04-09T10:41:42.282Z,19.65
2023-04-09T10:44:35.507Z,19.38
2023-04-09T10:47:04.625Z,20.26
2023-04-09T10:49:42.675Z,19.37
2023-04-09T10:52:13.838Z,18.74
2023-04-09T10:54:46.470Z,18.59
2023-04-09T10:57:16.700Z,19.98
2023-04-09T10:59:55.251Z,21.35
2023-04-09T11:02:40.785Z,21.15
2023-04-09T11:05:32.667Z,21.77
2023-04-09T11:08:09.831Z,22.18
2023-04-09T11:10:44.075Z,24.29
2023-04-09T11:13:17.631Z,24.85
2023-04-09T11:15:46.158Z,23.65
2023-04-09T11:18:23.133Z,34.69
2023-04-09T11:20:58.246Z,36.92
2023-04-09T11:23:26.932Z,32.38
2023-04-09T11:25:55.899Z,30.32
2023-04-09T11:28:24.455Z,32.95
2023-04-09T11:30:53.209Z,31.73
2023-04-09T11:33:20.980Z,30.61
2023-04-09T11:35:49.248Z,29.52
2023-04-09T11:38:16.727Z,28.63
2023-04-09T11:40:48.880Z,28.31
2023-04-09T11:43:17.954Z,27.23
2023-04-09T11:45:49.448Z,30.67
2023-04-09T11:48:23.419Z,30.64
2023-04-09T11:50:51.552Z,28.38
2023-04-09T11:53:22.127Z,33.63
2023-04-09T11:55:53.759Z,40.70
2023-04-09T11:58:26.573Z,41.39
2023-04-09T12:00:58.044Z,46.06
2023-04-09T12:03:36.929Z,45.77
2023-04-09T12:06:07.132Z,48.27
2023-04-09T12:08:36.337Z,49.68
2023-04-09T12:11:12.832Z,49.54
2023-04-09T12:13:44.649Z,49.88
2023-04-09T12:16:13.937Z,47.34
2023-04-09T12:18:41.566Z,42.51
2023-04-09T12:21:09.225Z,41.67
2023-04-09T12:23:36.632Z,39.90
2023-04-09T12:26:04.454Z,36.99
2023-04-09T12:28:31.745Z,34.35
2023-04-09T12:30:59.749Z,36.47
2023-04-09T12:33:27.346Z,37.38
2023-04-09T12:35:58.437Z,33.90
2023-04-09T12:38:26.887Z,32.66
2023-04-09T12:40:54.591Z,31.86
2023-04-09T12:43:21.935Z,29.76
2023-04-09T12:45:49.585Z,27.82
2023-04-09T12:48:16.821Z,26.90
2023-04-09T12:50:44.723Z,26.14
2023-04-09T12:53:12.032Z,25.28
2023-04-09T12:55:41.550Z,24.92
2023-04-09T12:58:10.009Z,24.67
2023-04-09T13:00:37.734Z,24.55
2023-04-09T13:03:05.113Z,26.54
2023-04-09T13:05:35.560Z,26.58
2023-04-09T13:08:03.604Z,25.86
2023-04-09T13:10:31.713Z,25.09
2023-04-09T13:12:59.188Z,24.52
2023-04-09T13:15:27.501Z,23.89
2023-04-09T13:17:55.773Z,23.45
2023-04-09T13:20:23.556Z,22.76
2023-04-09T13:22:51.098Z,22.20
2023-04-09T13:25:18.748Z,21.88
2023-04-09T13:27:46.143Z,21.54
2023-04-09T13:30:13.946Z,21.15
2023-04-09T13:32:41.482Z,20.85
2023-04-09T13:35:10.430Z,20.71
2023-04-09T13:37:37.726Z,20.65
2023-04-09T13:40:06.549Z,20.50
2023-04-09T13:42:33.794Z,20.54
2023-04-09T13:45:01.588Z,20.31
2023-04-09T13:47:28.927Z,20.07
2023-04-09T13:49:56.562Z,19.55
2023-04-09T13:52:26.752Z,19.18
2023-04-09T13:54:56.879Z,19.06
2023-04-09T13:57:24.151Z,18.85
2023-04-09T13:59:51.733Z,18.63
2023-04-09T14:02:19.375Z,18.24
2023-04-09T14:04:47.280Z,18.12
2023-04-09T14:07:14.580Z,17.90
2023-04-09T14:09:42.167Z,17.75
2023-04-09T14:12:09.466Z,17.52
2023-04-09T14:14:36.977Z,17.37
2023-04-09T14:17:04.822Z,17.20
2023-04-09T14:19:32.447Z,17.12
2023-04-09T14:21:59.777Z,17.13
2023-04-09T14:24:27.317Z,17.27
2023-04-09T14:26:54.616Z,17.34
2023-04-09T14:29:22.227Z,17.38
2023-04-09T14:31:49.725Z,18.12
2023-04-09T14:34:17.594Z,19.28
2023-04-09T14:36:44.923Z,20.06
2023-04-09T14:39:12.466Z,20.47
2023-04-09T14:41:39.905Z,20.77
2023-04-09T14:44:07.703Z,20.66
2023-04-09T14:46:36.731Z,20.55
2023-04-09T14:49:04.426Z,20.63
2023-04-09T14:51:31.911Z,20.66
2023-04-09T14:53:59.677Z,20.69
2023-04-09T14:56:27.247Z,20.91
2023-04-09T14:58:54.997Z,20.94
2023-04-09T15:01:22.858Z,20.90
2023-04-09T15:03:50.849Z,20.68
2023-04-09T15:06:18.347Z,20.32
2023-04-09T15:08:46.046Z,20.16
2023-04-09T15:11:17.755Z,20.16
2023-04-09T15:13:45.818Z,20.15
2023-04-09T15:16:23.364Z,19.96
2023-04-09T15:18:52.641Z,19.85
2023-04-09T15:21:20.863Z,19.68
2023-04-09T15:23:51.498Z,19.58
2023-04-09T15:26:19.196Z,19.49
2023-04-09T15:28:46.829Z,19.44
2023-04-09T15:31:14.170Z,19.44
2023-04-09T15:33:44.902Z,19.44
2023-04-09T15:36:12.211Z,19.41
2023-04-09T15:38:39.759Z,19.29
2023-04-09T15:41:07.127Z,19.26
2023-04-09T15:43:34.656Z,19.19
2023-04-09T15:46:11.667Z,19.23
2023-04-09T15:48:39.308Z,19.35
2023-04-09T15:51:06.757Z,19.45
2023-04-09T15:53:34.450Z,19.46
2023-04-09T15:56:02.347Z,19.38
2023-04-09T15:58:29.939Z,19.32
2023-04-09T16:00:57.377Z,19.15
2023-04-09T16:03:25.048Z,18.94
2023-04-09T16:05:52.387Z,18.36
2023-04-09T16:08:19.897Z,18.04
2023-04-09T16:10:47.137Z,17.72
2023-04-09T16:13:14.655Z,17.39
2023-04-09T16:15:41.901Z,17.06
2023-04-09T16:18:10.294Z,16.77
2023-04-09T16:20:37.684Z,16.61
2023-04-09T16:23:05.464Z,16.49
2023-04-09T16:25:32.699Z,16.23
2023-04-09T16:28:00.263Z,16.03
2023-04-09T16:30:27.620Z,15.93
2023-04-09T16:32:55.436Z,15.79
2023-04-09T16:35:22.813Z,15.63
2023-04-09T16:37:51.960Z,15.52
2023-04-09T16:40:24.254Z,15.32
2023-04-09T16:42:51.811Z,15.25
2023-04-09T16:45:19.105Z,15.13
2023-04-09T16:47:50.823Z,14.89
2023-04-09T16:50:20.732Z,14.81
2023-04-09T16:52:48.682Z,14.68
2023-04-09T16:55:16.758Z,14.54
2023-04-09T16:57:44.291Z,14.44
2023-04-09T17:00:12.987Z,14.32
2023-04-09T17:02:40.682Z,14.21
2023-04-09T17:05:09.030Z,14.10
2023-04-09T17:07:36.596Z,13.89
2023-04-09T17:10:04.326Z,13.81
2023-04-09T17:12:32.570Z,13.71
2023-04-09T17:15:00.710Z,13.62
2023-04-09T17:17:28.307Z,13.55
2023-04-09T17:19:56.648Z,13.46
2023-04-09T17:22:24.224Z,13.30
2023-04-09T17:24:52.833Z,13.27
2023-04-09T17:27:20.669Z,13.21
2023-04-09T17:29:48.003Z,13.12
2023-04-09T17:32:15.605Z,13.07
2023-04-09T17:34:46.730Z,13.00
2023-04-09T17:37:14.268Z,12.96
2023-04-09T17:39:41.640Z,12.94
2023-04-09T17:42:11.825Z,12.89
2023-04-09T17:44:39.577Z,12.86
2023-04-09T17:47:07.587Z,12.82
2023-04-09T17:49:34.976Z,12.81
2023-04-09T17:52:02.547Z,12.74
2023-04-09T17:54:36.827Z,12.69
2023-04-09T17:57:04.829Z,12.62
2023-04-09T17:59:33.256Z,12.56
2023-04-09T18:02:01.481Z,12.50
2023-04-09T18:04:29.278Z,12.41
2023-04-09T18:06:57.044Z,12.34
2023-04-09T18:09:24.354Z,12.29
2023-04-09T18:11:56.539Z,12.25
2023-04-09T18:14:24.330Z,12.16
2023-04-09T18:16:51.993Z,12.08
2023-04-09T18:19:19.384Z,12.03
2023-04-09T18:21:46.911Z,11.96
2023-04-09T18:24:14.172Z,11.91
2023-04-09T18:26:41.796Z,11.84
2023-04-09T18:29:09.097Z,11.82
2023-04-09T18:31:36.842Z,11.79
2023-04-09T18:34:04.178Z,11.75
2023-04-09T18:36:31.746Z,11.73
2023-04-09T18:38:59.049Z,11.68
2023-04-09T18:41:27.421Z,11.60
2023-04-09T18:43:55.196Z,11.51
2023-04-09T18:46:23.986Z,11.46
2023-04-09T18:48:51.897Z,11.40
2023-04-09T18:51:21.197Z,11.35
2023-04-09T18:53:54.639Z,11.27
2023-04-09T18:56:22.393Z,11.24
2023-04-09T18:58:51.882Z,11.20
2023-04-09T19:01:23.243Z,11.15
2023-04-09T19:03:50.822Z,11.11
2023-04-09T19:06:20.245Z,11.04
2023-04-09T19:08:50.154Z,11.00
2023-04-09T19:11:17.709Z,10.96
2023-04-09T19:13:44.949Z,10.92
2023-04-09T19:16:12.517Z,10.84
2023-04-09T19:18:39.777Z,10.80
2023-04-09T19:21:08.239Z,10.77
2023-04-09T19:23:35.900Z,10.75
2023-04-09T19:26:05.623Z,10.71
2023-04-09T19:28:32.890Z,10.68
2023-04-09T19:31:02.888Z,10.67
2023-04-09T19:33:30.924Z,10.61
2023-04-09T19:35:58.554Z,10.56
2023-04-09T19:38:25.835Z,10.51
2023-04-09T19:40:53.373Z,10.47
2023-04-09T19:43:21.073Z,10.41
2023-04-09T19:45:48.617Z,10.39
2023-04-09T19:48:16.133Z,10.34
2023-04-09T19:50:45.322Z,10.28
2023-04-09T19:53:12.594Z,10.29
2023-04-09T19:55:40.696Z,10.28
2023-04-09T19:58:07.948Z,10.28
2023-04-09T20:00:35.493Z,10.29
2023-04-09T20:03:03.302Z,10.32
2023-04-09T20:05:31.059Z,10.34
2023-04-09T20:07:58.372Z,10.35
2023-04-09T20:10:26.124Z,10.33
2023-04-09T20:12:54.046Z,10.35
2023-04-09T20:15:21.844Z,10.35
2023-04-09T20:17:50.663Z,10.33
2023-04-09T20:20:20.593Z,10.35
2023-04-09T20:22:56.258Z,10.33
2023-04-09T20:25:25.829Z,10.29
2023-04-09T20:27:54.383Z,10.27
2023-04-09T20:30:22.718Z,10.23
2023-04-09T20:32:50.150Z,10.22
2023-04-09T20:35:17.796Z,10.22
2023-04-09T20:37:45.156Z,10.22
2023-04-09T20:40:12.936Z,10.26
2023-04-09T20:42:44.314Z,10.26
2023-04-09T20:45:12.046Z,10.28
2023-04-09T20:47:39.338Z,10.28
2023-04-09T20:50:07.795Z,10.28
2023-04-09T20:52:35.171Z,10.27
2023-04-09T20:55:02.734Z,10.26
2023-04-09T20:57:30.001Z,10.25
2023-04-09T20:59:57.721Z,10.27
2023-04-09T21:02:25.660Z,10.28
2023-04-09T21:04:53.497Z,10.29
2023-04-09T21:07:20.879Z,10.29
2023-04-09T21:09:49.015Z,10.31
2023-04-09T21:12:16.339Z,10.26
2023-04-09T21:14:43.897Z,10.19
2023-04-09T21:17:11.162Z,10.26
2023-04-09T21:19:38.744Z,10.18
2023-04-09T21:22:06.029Z,10.13
2023-04-09T21:24:35.330Z,10.12
2023-04-09T21:27:06.818Z,10.08
2023-04-09T21:29:35.055Z,10.02
2023-04-09T21:32:02.953Z,10.00
2023-04-09T21:34:31.542Z,9.94
2023-04-09T21:36:58.954Z,9.91
2023-04-09T21:39:26.512Z,9.86
2023-04-09T21:41:53.745Z,9.84
2023-04-09T21:44:21.395Z,9.82
2023-04-09T21:46:48.772Z,9.98
2023-04-09T21:49:16.579Z,10.06
2023-04-09T21:51:46.637Z,9.99
2023-04-09T21:54:14.380Z,9.93
2023-04-09T21:56:41.639Z,9.87
2023-04-09T21:59:09.192Z,9.90
2023-04-09T22:01:36.548Z,9.98
2023-04-09T22:04:04.581Z,10.00
2023-04-09T22:06:32.334Z,10.00
2023-04-09T22:09:00.203Z,9.97
2023-04-09T22:11:28.878Z,10.00
2023-04-09T22:13:57.618Z,9.98
2023-04-09T22:16:26.124Z,9.96
2023-04-09T22:18:54.857Z,9.88
2023-04-09T22:21:22.613Z,9.88
2023-04-09T22:23:50.156Z,9.91
2023-04-09T22:26:17.511Z,9.95
2023-04-09T22:28:45.078Z,9.90
2023-04-09T22:31:12.618Z,9.90
2023-04-09T22:33:40.551Z,9.94
2023-04-09T22:36:08.300Z,9.91
2023-04-09T22:38:36.243Z,9.90
2023-04-09T22:41:03.613Z,9.85
2023-04-09T22:43:31.734Z,9.78
2023-04-09T22:45:58.949Z,9.83
2023-04-09T22:48:26.451Z,9.78
2023-04-09T22:50:53.718Z,9.74
2023-04-09T22:53:21.830Z,9.72
2023-04-09T22:55:51.651Z,9.79
2023-04-09T22:58:19.463Z,9.79
2023-04-09T23:00:47.625Z,9.78
2023-04-09T23:03:15.977Z,9.83
2023-04-09T23:05:43.906Z,9.83
2023-04-09T23:08:11.618Z,9.86
2023-04-09T23:10:38.902Z,9.87
2023-04-09T23:13:06.552Z,9.85
2023-04-09T23:15:34.185Z,9.86
2023-04-09T23:18:01.762Z,9.87
2023-04-09T23:20:30.013Z,9.87
2023-04-09T23:22:57.536Z,9.87
2023-04-09T23:25:24.797Z,9.91
2023-04-09T23:27:52.324Z,9.93
2023-04-09T23:30:21.649Z,9.95
2023-04-09T23:32:49.420Z,9.95
2023-04-09T23:35:16.816Z,9.92
2023-04-09T23:37:44.461Z,9.93
2023-04-09T23:40:12.619Z,9.94
2023-04-09T23:42:40.258Z,9.97
2023-04-09T23:45:08.316Z,9.95
2023-04-09T23:47:38.046Z,9.99
2023-04-09T23:50:07.975Z,10.00
2023-04-09T23:52:38.453Z,10.01
2023-04-09T23:55:10.865Z,10.01
2023-04-09T23:57:39.612Z,9.99
